createdAt,value
2023-03-05T00:02:32.335Z,0.27
2023-03-05T00:05:34.894Z,0.24
2023-03-05T00:08:37.708Z,0.21
2023-03-05T00:11:39.990Z,0.23
2023-03-05T00:14:42.143Z,0.23
2023-03-05T00:17:44.328Z,0.21
2023-03-05T00:20:46.686Z,0.23
2023-03-05T00:23:50.745Z,0.33
2023-03-05T00:26:53.248Z,0.40
2023-03-05T00:29:55.386Z,0.53
2023-03-05T00:32:57.875Z,0.50
2023-03-05T00:36:02.519Z,0.45
2023-03-05T00:39:04.796Z,0.45
2023-03-05T00:42:07.341Z,0.39
2023-03-05T00:45:11.013Z,0.22
2023-03-05T00:48:13.249Z,0.12
2023-03-05T00:51:15.514Z,0.05
2023-03-05T00:54:17.761Z,0.01
2023-03-05T00:57:19.940Z,-0.04
2023-03-05T01:00:22.207Z,-0.05
2023-03-05T01:03:24.468Z,-0.04
2023-03-05T01:06:27.272Z,-0.05
2023-03-05T01:09:30.445Z,-0.04
2023-03-05T01:12:32.638Z,0.02
2023-03-05T01:15:34.961Z,-0.02
2023-03-05T01:18:38.558Z,-0.03
2023-03-05T01:21:40.841Z,0.00
2023-03-05T01:24:43.029Z,0.05
2023-03-05T01:27:45.276Z,0.03
2023-03-05T01:30:47.478Z,0.09
2023-03-05T01:33:53.011Z,0.12
2023-03-05T01:36:55.186Z,0.23
2023-03-05T01:39:57.375Z,0.37
2023-03-05T01:43:02.241Z,0.38
2023-03-05T01:46:16.901Z,0.24
2023-03-05T01:49:25.154Z,0.23
2023-03-05T01:52:28.053Z,0.18
2023-03-05T01:55:31.097Z,0.25
2023-03-05T01:58:33.569Z,0.47
2023-03-05T02:01:40.249Z,0.55
2023-03-05T02:05:03.780Z,0.57
2023-03-05T02:08:09.356Z,0.51
2023-03-05T02:11:11.524Z,0.31
2023-03-05T02:14:13.695Z,0.60
2023-03-05T02:17:16.172Z,0.70
2023-03-05T02:20:27.486Z,0.89
2023-03-05T02:23:38.617Z,0.74
2023-03-05T02:26:43.216Z,0.58
2023-03-05T02:29:46.596Z,0.58
2023-03-05T02:32:49.040Z,0.53
2023-03-05T02:35:51.528Z,0.48
2023-03-05T02:38:53.988Z,0.50
2023-03-05T02:41:56.238Z,0.69
2023-03-05T02:44:58.434Z,0.61
2023-03-05T02:48:00.709Z,0.90
2023-03-05T02:51:04.327Z,0.98
2023-03-05T02:54:06.593Z,0.95
2023-03-05T02:57:08.812Z,0.96
2023-03-05T03:00:11.720Z,0.80
2023-03-05T03:03:14.160Z,0.86
2023-03-05T03:06:16.418Z,0.83
2023-03-05T03:09:18.642Z,0.85
2023-03-05T03:12:20.848Z,0.79
2023-03-05T03:15:23.451Z,0.77
2023-03-05T03:18:25.599Z,0.81
2023-03-05T03:21:27.818Z,0.83
2023-03-05T03:24:31.136Z,0.84
2023-03-05T03:27:33.297Z,0.94
2023-03-05T03:30:35.561Z,0.95
2023-03-05T03:33:37.786Z,0.98
2023-03-05T03:36:39.930Z,0.98
2023-03-05T03:39:42.100Z,1.04
2023-03-05T03:42:44.302Z,1.04
2023-03-05T03:45:46.580Z,1.05
2023-03-05T03:48:52.094Z,1.05
2023-03-05T03:51:54.800Z,1.06
2023-03-05T03:55:01.603Z,1.11
2023-03-05T03:58:04.205Z,1.17
2023-03-05T04:01:06.419Z,1.36
2023-03-05T04:04:08.929Z,1.27
2023-03-05T04:07:11.253Z,1.49
2023-03-05T04:10:13.547Z,1.59
2023-03-05T04:13:15.711Z,1.43
2023-03-05T04:16:19.433Z,1.53
2023-03-05T04:19:21.662Z,1.48
2023-03-05T04:22:23.852Z,1.63
2023-03-05T04:25:25.997Z,1.54
2023-03-05T04:28:28.270Z,1.51
2023-03-05T04:31:30.555Z,1.52
2023-03-05T04:34:33.299Z,1.49
2023-03-05T04:37:35.549Z,1.61
2023-03-05T04:40:38.152Z,1.55
2023-03-05T04:43:40.280Z,1.53
2023-03-05T04:46:42.472Z,1.67
2023-03-05T04:49:45.415Z,1.54
2023-03-05T04:52:47.831Z,1.55
2023-03-05T04:55:54.937Z,1.58
2023-03-05T04:58:57.560Z,1.46
2023-03-05T05:01:59.798Z,1.58
2023-03-05T05:05:02.015Z,1.44
2023-03-05T05:08:04.403Z,1.39
2023-03-05T05:11:07.853Z,1.40
2023-03-05T05:14:10.076Z,1.42
2023-03-05T05:17:12.234Z,1.54
2023-03-05T05:20:15.853Z,1.39
2023-03-05T05:23:18.436Z,1.43
2023-03-05T05:26:20.639Z,1.46
2023-03-05T05:29:23.733Z,1.58
2023-03-05T05:32:26.236Z,1.47
2023-03-05T05:35:28.687Z,1.49
2023-03-05T05:38:30.900Z,1.40
2023-03-05T05:41:33.138Z,1.41
2023-03-05T05:44:35.381Z,1.51
2023-03-05T05:47:37.556Z,1.49
2023-03-05T05:50:41.181Z,1.53
2023-03-05T05:53:43.958Z,1.72
2023-03-05T05:56:46.119Z,1.78
2023-03-05T05:59:48.318Z,1.91
2023-03-05T06:02:50.535Z,1.99
2023-03-05T06:05:52.828Z,1.91
2023-03-05T06:08:55.698Z,1.92
2023-03-05T06:11:57.951Z,1.98
2023-03-05T06:15:00.159Z,2.05
2023-03-05T06:18:02.754Z,1.84
2023-03-05T06:21:11.007Z,1.96
2023-03-05T06:24:13.758Z,1.91
2023-03-05T06:27:15.962Z,1.90
2023-03-05T06:30:18.311Z,1.93
2023-03-05T06:33:20.563Z,1.97
2023-03-05T06:36:24.885Z,2.00
2023-03-05T06:39:27.030Z,2.03
2023-03-05T06:42:29.213Z,2.08
2023-03-05T06:45:31.379Z,2.14
2023-03-05T06:48:34.083Z,2.12
2023-03-05T06:51:38.657Z,2.13
2023-03-05T06:54:40.894Z,2.17
2023-03-05T06:57:43.133Z,2.27
2023-03-05T07:00:45.579Z,2.38
2023-03-05T07:03:53.453Z,2.38
2023-03-05T07:06:55.899Z,2.47
2023-03-05T07:09:58.051Z,2.53
2023-03-05T07:13:00.322Z,2.55
2023-03-05T07:16:09.036Z,2.52
2023-03-05T07:19:11.256Z,2.61
2023-03-05T07:22:13.402Z,2.61
2023-03-05T07:25:21.412Z,2.54
2023-03-05T07:28:24.183Z,2.42
2023-03-05T07:31:31.730Z,2.51
2023-03-05T07:34:33.930Z,2.50
2023-03-05T07:37:36.179Z,2.65
2023-03-05T07:40:38.358Z,2.73
2023-03-05T07:43:40.865Z,2.69
2023-03-05T07:46:43.531Z,2.83
2023-03-05T07:49:46.238Z,2.78
2023-03-05T07:52:48.472Z,2.89
2023-03-05T07:55:50.671Z,2.90
2023-03-05T07:58:53.196Z,2.74
2023-03-05T08:01:55.386Z,2.73
2023-03-05T08:04:57.617Z,2.68
2023-03-05T08:07:59.809Z,2.50
2023-03-05T08:11:06.781Z,2.52
2023-03-05T08:14:09.289Z,2.60
2023-03-05T08:17:11.476Z,2.61
2023-03-05T08:20:13.955Z,2.82
2023-03-05T08:23:16.173Z,3.03
2023-03-05T08:26:21.167Z,2.85
2023-03-05T08:29:23.625Z,2.87
2023-03-05T08:32:25.862Z,2.97
2023-03-05T08:35:28.098Z,3.26
2023-03-05T08:38:30.276Z,2.92
2023-03-05T08:41:32.662Z,3.12
2023-03-05T08:44:34.846Z,3.23
2023-03-05T08:47:36.988Z,3.10
2023-03-05T08:50:39.334Z,3.51
2023-03-05T08:53:42.955Z,3.63
2023-03-05T08:56:46.089Z,3.64
2023-03-05T08:59:48.406Z,3.73
2023-03-05T09:02:51.307Z,3.64
2023-03-05T09:05:53.716Z,3.67
2023-03-05T09:08:55.919Z,3.46
2023-03-05T09:11:59.232Z,3.63
2023-03-05T09:15:01.419Z,3.71
2023-03-05T09:18:03.695Z,3.67
2023-03-05T09:21:08.428Z,3.85
2023-03-05T09:24:11.820Z,3.70
2023-03-05T09:27:14.010Z,3.77
2023-03-05T09:30:17.021Z,4.00
2023-03-05T09:33:19.197Z,3.85
2023-03-05T09:36:25.081Z,3.62
2023-03-05T09:39:27.288Z,3.57
2023-03-05T09:42:41.482Z,3.31
2023-03-05T09:46:05.464Z,3.30
2023-03-05T09:49:31.769Z,3.62
2023-03-05T09:53:03.266Z,3.58
2023-03-05T09:56:12.003Z,3.78
2023-03-05T09:59:23.568Z,3.90
2023-03-05T10:02:26.636Z,3.92
2023-03-05T10:05:36.425Z,4.10
2023-03-05T10:08:46.703Z,3.73
2023-03-05T10:11:54.935Z,3.76
2023-03-05T10:15:00.553Z,3.94
2023-03-05T10:18:19.570Z,4.14
2023-03-05T10:21:32.688Z,4.16
2023-03-05T10:24:50.310Z,4.13
2023-03-05T10:27:57.595Z,4.35
2023-03-05T10:31:15.036Z,4.17
2023-03-05T10:34:23.782Z,3.95
2023-03-05T10:37:51.074Z,3.95
2023-03-05T10:40:55.374Z,3.85
2023-03-05T10:44:33.684Z,3.84
2023-03-05T10:47:38.888Z,3.75
2023-03-05T10:50:45.093Z,3.81
2023-03-05T10:54:04.624Z,4.30
2023-03-05T10:57:12.874Z,4.22
2023-03-05T11:00:23.843Z,4.48
2023-03-05T11:03:26.138Z,4.38
2023-03-05T11:06:38.727Z,4.47
2023-03-05T11:09:41.788Z,4.57
2023-03-05T11:12:45.058Z,4.87
2023-03-05T11:15:59.417Z,4.45
2023-03-05T11:19:40.066Z,4.48
2023-03-05T11:22:42.232Z,4.78
2023-03-05T11:26:02.191Z,4.70
2023-03-05T11:29:13.922Z,4.69
2023-03-05T11:32:20.349Z,4.43
2023-03-05T11:35:34.672Z,4.12
2023-03-05T11:38:47.162Z,4.34
2023-03-05T11:42:03.478Z,4.31
2023-03-05T11:45:06.623Z,4.03
2023-03-05T11:48:21.643Z,4.01
2023-03-05T11:51:37.941Z,4.00
2023-03-05T11:55:04.918Z,4.13
2023-03-05T11:58:07.040Z,4.33
2023-03-05T12:01:18.773Z,4.10
2023-03-05T12:04:21.551Z,4.23
2023-03-05T12:07:45.649Z,4.45
2023-03-05T12:10:48.780Z,4.58
2023-03-05T12:14:00.812Z,4.10
2023-03-05T12:17:05.996Z,3.97
2023-03-05T12:20:14.851Z,4.13
2023-03-05T12:23:20.375Z,4.55
2023-03-05T12:27:04.495Z,4.58
2023-03-05T12:30:35.428Z,4.76
2023-03-05T12:33:42.622Z,4.83
2023-03-05T12:36:45.056Z,4.68
2023-03-05T12:40:04.745Z,4.94
2023-03-05T12:43:31.041Z,5.11
2023-03-05T12:46:43.570Z,4.94
2023-03-05T12:49:46.515Z,4.96
2023-03-05T12:52:48.810Z,5.03
2023-03-05T12:56:02.050Z,5.34
2023-03-05T12:59:04.801Z,5.07
2023-03-05T13:02:21.235Z,5.03
2023-03-05T13:05:35.884Z,4.94
2023-03-05T13:08:38.491Z,4.82
2023-03-05T13:11:43.093Z,4.88
2023-03-05T13:14:47.428Z,4.71
2023-03-05T13:18:16.866Z,4.65
2023-03-05T13:21:21.475Z,5.04
2023-03-05T13:24:23.845Z,5.07
2023-03-05T13:27:31.227Z,5.02
2023-03-05T13:30:34.736Z,4.77
2023-03-05T13:33:37.548Z,4.69
2023-03-05T13:36:40.117Z,4.64
2023-03-05T13:39:51.560Z,4.45
2023-03-05T13:42:54.820Z,4.24
2023-03-05T13:45:58.662Z,4.16
2023-03-05T13:49:23.325Z,4.06
2023-03-05T13:52:31.550Z,3.80
2023-03-05T13:55:33.856Z,3.81
2023-03-05T13:58:54.409Z,3.77
2023-03-05T14:01:59.541Z,3.76
2023-03-05T14:05:02.053Z,3.77
2023-03-05T14:08:04.469Z,3.75
2023-03-05T14:11:17.522Z,3.68
2023-03-05T14:14:22.108Z,3.65
2023-03-05T14:17:27.466Z,3.57
2023-03-05T14:20:30.309Z,3.54
2023-03-05T14:23:32.641Z,3.47
2023-03-05T14:26:36.637Z,3.43
2023-03-05T14:29:45.240Z,3.48
2023-03-05T14:32:48.180Z,3.52
2023-03-05T14:35:51.573Z,3.54
2023-03-05T14:38:54.244Z,3.55
2023-03-05T14:42:32.724Z,3.49
2023-03-05T14:45:38.048Z,3.46
2023-03-05T14:48:40.463Z,3.47
2023-03-05T14:51:45.150Z,3.38
2023-03-05T14:54:48.013Z,3.39
2023-03-05T14:57:51.718Z,3.37
2023-03-05T15:00:55.325Z,3.42
2023-03-05T15:03:57.512Z,3.47
2023-03-05T15:06:59.962Z,3.59
2023-03-05T15:10:02.499Z,3.59
2023-03-05T15:13:04.653Z,3.63
2023-03-05T15:16:08.168Z,3.64
2023-03-05T15:19:12.947Z,3.56
2023-03-05T15:22:16.109Z,3.63
2023-03-05T15:25:19.878Z,3.37
2023-03-05T15:28:22.055Z,3.34
2023-03-05T15:31:24.882Z,3.28
2023-03-05T15:34:28.559Z,3.36
2023-03-05T15:37:31.090Z,3.37
2023-03-05T15:40:33.903Z,3.29
2023-03-05T15:43:37.269Z,3.24
2023-03-05T15:46:40.144Z,3.19
2023-03-05T15:49:42.640Z,3.13
2023-03-05T15:52:44.909Z,3.05
2023-03-05T15:55:47.415Z,3.03
2023-03-05T15:58:52.876Z,3.04
2023-03-05T16:01:56.365Z,3.02
2023-03-05T16:04:58.781Z,3.18
2023-03-05T16:08:01.417Z,3.06
2023-03-05T16:11:04.177Z,3.08
2023-03-05T16:14:09.176Z,3.02
2023-03-05T16:17:12.085Z,2.99
2023-03-05T16:20:15.547Z,3.12
2023-03-05T16:23:18.444Z,3.01
2023-03-05T16:26:21.201Z,2.88
2023-03-05T16:29:23.921Z,2.95
2023-03-05T16:32:26.613Z,2.91
2023-03-05T16:35:30.812Z,2.87
2023-03-05T16:38:33.391Z,2.79
2023-03-05T16:41:35.875Z,2.84
2023-03-05T16:44:38.427Z,2.74
2023-03-05T16:47:41.320Z,2.72
2023-03-05T16:50:44.011Z,2.74
2023-03-05T16:53:47.935Z,2.70
2023-03-05T16:56:50.389Z,2.76
2023-03-05T16:59:54.202Z,2.69
2023-03-05T17:02:56.673Z,2.61
2023-03-05T17:05:59.560Z,2.54
2023-03-05T17:09:02.948Z,2.44
2023-03-05T17:12:05.639Z,2.38
2023-03-05T17:15:08.511Z,2.33
2023-03-05T17:18:11.035Z,2.28
2023-03-05T17:21:15.720Z,2.27
2023-03-05T17:24:22.254Z,2.30
2023-03-05T17:27:25.266Z,2.21
2023-03-05T17:30:28.400Z,2.19
2023-03-05T17:33:34.890Z,2.07
2023-03-05T17:36:39.221Z,2.12
2023-03-05T17:39:41.622Z,2.10
2023-03-05T17:42:44.323Z,2.09
2023-03-05T17:45:47.824Z,2.05
2023-03-05T17:48:50.457Z,2.06
2023-03-05T17:51:53.444Z,1.96
2023-03-05T17:54:57.301Z,1.86
2023-03-05T17:58:00.440Z,1.88
2023-03-05T18:01:04.157Z,1.83
2023-03-05T18:04:06.503Z,1.67
2023-03-05T18:07:09.044Z,1.81
2023-03-05T18:10:12.632Z,1.85
2023-03-05T18:13:15.148Z,2.01
2023-03-05T18:16:18.258Z,1.89
2023-03-05T18:19:20.883Z,1.75
2023-03-05T18:22:23.801Z,1.64
2023-03-05T18:25:31.020Z,1.67
2023-03-05T18:28:33.701Z,1.71
2023-03-05T18:31:36.353Z,1.58
2023-03-05T18:34:39.316Z,1.59
2023-03-05T18:37:41.822Z,1.60
2023-03-05T18:40:45.977Z,1.60
2023-03-05T18:43:48.436Z,1.58
2023-03-05T18:46:50.693Z,1.43
2023-03-05T18:49:53.824Z,1.36
2023-03-05T18:52:56.337Z,1.34
2023-03-05T18:55:58.784Z,1.50
2023-03-05T18:59:01.287Z,1.55
2023-03-05T19:02:03.472Z,1.52
2023-03-05T19:05:06.288Z,1.39
2023-03-05T19:08:09.875Z,1.64
2023-03-05T19:11:20.448Z,1.40
2023-03-05T19:14:22.960Z,1.33
2023-03-05T19:17:25.691Z,1.24
2023-03-05T19:20:28.189Z,1.22
2023-03-05T19:23:30.640Z,1.18
2023-03-05T19:26:33.294Z,1.19
2023-03-05T19:29:37.603Z,1.09
2023-03-05T19:32:39.981Z,1.02
2023-03-05T19:35:42.602Z,1.04
2023-03-05T19:38:45.137Z,1.12
2023-03-05T19:41:47.859Z,1.07
2023-03-05T19:44:50.100Z,1.09
2023-03-05T19:47:52.624Z,0.99
2023-03-05T19:50:55.133Z,1.00
2023-03-05T19:53:57.616Z,0.97
2023-03-05T19:57:00.162Z,1.00
2023-03-05T20:00:02.757Z,0.86
2023-03-05T20:03:05.289Z,1.03
2023-03-05T20:06:08.417Z,0.78
2023-03-05T20:09:11.025Z,0.57
2023-03-05T20:12:13.728Z,0.39
2023-03-05T20:15:17.781Z,0.45
2023-03-05T20:18:20.320Z,0.32
2023-03-05T20:21:25.326Z,0.27
2023-03-05T20:24:27.887Z,0.28
2023-03-05T20:27:30.349Z,0.26
2023-03-05T20:30:32.516Z,0.29
2023-03-05T20:33:35.074Z,0.48
2023-03-05T20:36:37.442Z,0.54
2023-03-05T20:39:39.736Z,0.46
2023-03-05T20:42:41.909Z,-0.16
2023-03-05T20:45:45.301Z,-0.24
2023-03-05T20:48:49.720Z,-0.06
2023-03-05T20:51:51.926Z,-0.05
2023-03-05T20:54:54.491Z,0.10
2023-03-05T20:57:57.346Z,0.17
2023-03-05T21:00:59.786Z,0.44
2023-03-05T21:04:02.990Z,0.64
2023-03-05T21:07:05.492Z,0.76
2023-03-05T21:10:07.824Z,0.99
2023-03-05T21:13:10.278Z,1.00
2023-03-05T21:16:18.046Z,0.93
2023-03-05T21:19:20.563Z,1.15
2023-03-05T21:22:22.947Z,1.29
2023-03-05T21:25:30.365Z,1.29
2023-03-05T21:28:33.195Z,1.32
2023-03-05T21:31:37.511Z,1.24
2023-03-05T21:34:40.011Z,1.34
2023-03-05T21:37:45.136Z,1.54
2023-03-05T21:40:49.951Z,1.21
2023-03-05T21:43:52.149Z,1.46
2023-03-05T21:46:54.410Z,1.32
2023-03-05T21:49:56.707Z,1.31
2023-03-05T21:53:00.449Z,1.47
2023-03-05T21:56:25.528Z,1.42
2023-03-05T21:59:27.815Z,1.30
2023-03-05T22:02:29.954Z,1.37
2023-03-05T22:05:32.118Z,1.55
2023-03-05T22:08:34.277Z,1.63
2023-03-05T22:11:36.589Z,1.76
2023-03-05T22:14:38.727Z,1.69
2023-03-05T22:17:40.887Z,1.48
2023-03-05T22:20:43.203Z,1.33
2023-03-05T22:23:45.484Z,1.33
2023-03-05T22:26:47.747Z,1.24
2023-03-05T22:29:49.995Z,1.17
2023-03-05T22:32:52.181Z,1.10
2023-03-05T22:35:54.529Z,0.87
2023-03-05T22:38:56.710Z,0.99
2023-03-05T22:41:58.862Z,1.00
2023-03-05T22:45:01.107Z,0.87
2023-03-05T22:48:03.579Z,0.83
2023-03-05T22:51:06.458Z,0.90
2023-03-05T22:54:08.805Z,0.84
2023-03-05T22:57:11.289Z,0.92
2023-03-05T23:00:17.851Z,0.86
2023-03-05T23:03:20.050Z,0.97
2023-03-05T23:06:22.261Z,1.12
2023-03-05T23:09:24.443Z,1.05
2023-03-05T23:12:29.257Z,1.13
2023-03-05T23:15:33.949Z,1.26
2023-03-05T23:18:36.349Z,1.19
2023-03-05T23:21:38.522Z,0.96
2023-03-05T23:24:41.327Z,0.95
2023-03-05T23:27:43.800Z,0.90
2023-03-05T23:30:46.164Z,0.69
2023-03-05T23:33:48.406Z,0.59
2023-03-05T23:36:50.594Z,0.79
2023-03-05T23:39:52.765Z,0.64
2023-03-05T23:42:55.069Z,0.62
2023-03-05T23:45:57.442Z,0.43
2023-03-05T23:48:59.749Z,0.32
2023-03-05T23:52:01.997Z,0.32
2023-03-05T23:55:04.552Z,0.41
2023-03-05T23:58:07.220Z,0.58
